createdAt,value
2019-05-17T00:03:24.211Z,93.55
2019-05-17T00:08:33.912Z,92.46
2019-05-17T00:13:32.794Z,93.76
2019-05-17T00:18:37.043Z,94.23
2019-05-17T00:23:40.537Z,95.74
2019-05-17T00:28:43.958Z,96.18
2019-05-17T00:33:47.400Z,94.79
2019-05-17T00:38:51.580Z,95.71
2019-05-17T00:43:56.953Z,92.78
2019-05-17T00:49:00.524Z,94.39
2019-05-17T00:54:03.940Z,93.70
2019-05-17T00:59:07.572Z,95.02
2019-05-17T01:04:11.061Z,93.43
2019-05-17T01:09:16.806Z,92.83
2019-05-17T01:14:19.630Z,95.00
2019-05-17T01:19:23.057Z,95.72
2019-05-17T01:24:27.447Z,97.98
2019-05-17T01:29:30.899Z,94.33
2019-05-17T01:34:34.426Z,96.03
2019-05-17T01:39:37.911Z,92.83
2019-05-17T01:44:41.342Z,92.51
2019-05-17T01:49:46.807Z,93.89
2019-05-17T01:54:49.934Z,92.35
2019-05-17T01:59:53.437Z,92.10
2019-05-17T02:04:57.035Z,90.20
2019-05-17T02:10:00.485Z,91.44
2019-05-17T02:15:10.038Z,93.30
2019-05-17T02:20:14.104Z,94.72
2019-05-17T02:25:19.152Z,94.87
2019-05-17T02:30:23.482Z,97.42
2019-05-17T02:35:27.156Z,94.82
2019-05-17T02:40:33.543Z,97.23
2019-05-17T02:45:35.804Z,97.72
2019-05-17T02:50:39.154Z,97.71
2019-05-17T02:55:43.513Z,98.60
2019-05-17T03:00:47.298Z,98.68
2019-05-17T03:05:53.645Z,97.78
2019-05-17T03:10:55.983Z,96.66
2019-05-17T03:15:59.400Z,94.56
2019-05-17T03:21:04.095Z,94.08
2019-05-17T03:26:07.712Z,96.33
2019-05-17T03:31:16.593Z,98.85
2019-05-17T03:36:17.831Z,98.31
2019-05-17T03:41:27.894Z,97.36
2019-05-17T03:46:26.974Z,95.37
2019-05-17T03:51:33.348Z,96.14
2019-05-17T03:56:35.778Z,97.20
2019-05-17T04:01:39.203Z,98.62
2019-05-17T04:06:43.596Z,98.40
2019-05-17T04:11:47.360Z,98.66
2019-05-17T04:16:53.592Z,99.89
2019-05-17T04:21:55.943Z,98.69
2019-05-17T04:27:03.206Z,100.00
2019-05-17T04:32:04.661Z,100.00
2019-05-17T04:37:08.095Z,100.00
2019-05-17T04:42:13.630Z,100.00
2019-05-17T04:47:16.775Z,100.00
2019-05-17T04:52:22.801Z,100.00
2019-05-17T04:57:25.423Z,100.00
2019-05-17T05:02:28.869Z,100.00
2019-05-17T05:07:33.557Z,100.00
2019-05-17T05:12:37.140Z,100.00
2019-05-17T05:17:42.550Z,100.00
2019-05-17T05:22:45.710Z,100.00
2019-05-17T05:27:49.150Z,100.00
2019-05-17T05:32:52.584Z,100.00
2019-05-17T05:37:56.498Z,100.00
2019-05-17T05:43:02.137Z,100.00
2019-05-17T05:48:05.160Z,100.00
2019-05-17T05:53:08.599Z,100.00
2019-05-17T05:58:12.542Z,100.00
2019-05-17T06:03:18.893Z,100.00
2019-05-17T06:08:22.898Z,99.81
2019-05-17T06:13:26.434Z,99.91
2019-05-17T06:18:31.851Z,98.13
2019-05-17T06:23:34.999Z,97.67
2019-05-17T06:28:38.408Z,98.75
2019-05-17T06:33:42.292Z,94.50
2019-05-17T06:38:46.760Z,95.18
2019-05-17T06:43:52.357Z,94.22
2019-05-17T06:48:55.412Z,96.03
2019-05-17T06:53:58.854Z,95.91
2019-05-17T06:59:02.274Z,91.81
2019-05-17T07:04:05.698Z,91.83
2019-05-17T07:09:10.070Z,90.94
2019-05-17T07:14:13.725Z,88.89
2019-05-17T07:19:19.644Z,88.13
2019-05-17T07:24:22.320Z,88.79
2019-05-17T07:29:25.764Z,88.75
2019-05-17T07:34:30.849Z,88.28
2019-05-17T07:39:34.407Z,90.29
2019-05-17T07:44:40.144Z,88.60
2019-05-17T07:49:42.995Z,87.24
2019-05-17T07:54:46.451Z,86.26
2019-05-17T07:59:50.788Z,83.88
2019-05-17T08:04:54.273Z,83.83
2019-05-17T08:09:59.932Z,85.10
2019-05-17T08:15:02.958Z,83.50
2019-05-17T08:20:10.047Z,83.66
2019-05-17T08:25:13.170Z,81.94
2019-05-17T08:30:20.096Z,81.54
2019-05-17T08:35:23.061Z,82.36
2019-05-17T08:40:26.501Z,83.03
2019-05-17T08:45:29.939Z,83.52
2019-05-17T08:55:54.713Z,83.68
2019-05-17T09:01:00.347Z,83.06
2019-05-17T09:06:03.314Z,84.63
2019-05-17T09:11:06.735Z,84.21
2019-05-17T09:16:10.747Z,84.94
2019-05-17T09:21:14.416Z,85.54
2019-05-17T09:26:19.847Z,84.08
2019-05-17T09:31:23.009Z,83.77
2019-05-17T09:36:26.419Z,84.38
2019-05-17T09:41:29.864Z,84.31
2019-05-17T09:46:34.058Z,83.59
2019-05-17T09:51:39.479Z,83.38
2019-05-17T09:56:42.562Z,83.80
2019-05-17T10:01:45.986Z,83.38
2019-05-17T10:06:51.316Z,82.49
2019-05-17T10:11:54.632Z,80.29
2019-05-17T10:17:00.167Z,82.79
2019-05-17T10:22:03.207Z,81.83
2019-05-17T10:27:06.626Z,77.76
2019-05-17T10:32:10.592Z,77.93
2019-05-17T10:37:14.175Z,79.10
2019-05-17T10:42:17.566Z,80.66
2019-05-17T10:47:20.992Z,79.90
2019-05-17T10:52:24.438Z,80.48
2019-05-17T10:57:30.099Z,80.35
2019-05-17T11:02:33.084Z,80.38
2019-05-17T11:07:36.524Z,79.44
2019-05-17T11:12:40.025Z,81.41
2019-05-17T11:17:43.504Z,78.43
2019-05-17T11:22:46.926Z,79.14
2019-05-17T11:27:50.360Z,80.83
2019-05-17T11:32:53.809Z,72.93
2019-05-17T11:37:57.285Z,70.85
2019-05-17T11:43:00.704Z,67.96
2019-05-17T11:48:04.265Z,64.92
2019-05-17T11:53:07.704Z,62.48
2019-05-17T11:58:11.118Z,64.28
2019-05-17T12:03:15.569Z,65.06
2019-05-17T12:08:19.178Z,62.50
2019-05-17T12:13:22.574Z,63.24
2019-05-17T12:18:26.058Z,62.18
2019-05-17T12:23:29.480Z,59.73
2019-05-17T12:28:32.901Z,57.87
2019-05-17T12:33:36.339Z,60.88
2019-05-17T12:38:39.809Z,59.02
2019-05-17T12:43:43.221Z,60.61
2019-05-17T12:48:46.646Z,60.58
2019-05-17T12:53:50.089Z,60.14
2019-05-17T12:58:53.492Z,58.13
2019-05-17T13:03:56.907Z,57.03
2019-05-17T13:09:00.382Z,52.74
2019-05-17T13:14:04.110Z,52.63
2019-05-17T13:19:07.535Z,51.45
2019-05-17T13:24:11.968Z,50.39
2019-05-17T13:29:15.480Z,53.80
2019-05-17T13:34:18.912Z,53.69
2019-05-17T13:39:22.338Z,51.70
2019-05-17T13:44:25.758Z,51.68
2019-05-17T13:49:29.203Z,53.41
2019-05-17T13:54:32.627Z,52.54
2019-05-17T13:59:36.105Z,53.70
2019-05-17T14:04:39.575Z,54.36
2019-05-17T14:09:43.044Z,53.28
2019-05-17T14:14:46.487Z,53.97
2019-05-17T14:19:49.940Z,54.48
2019-05-17T14:24:53.355Z,56.32
2019-05-17T14:29:56.802Z,55.58
2019-05-17T14:35:00.234Z,57.03
2019-05-17T14:40:05.313Z,55.13
2019-05-17T14:45:09.893Z,57.71
2019-05-17T14:50:13.449Z,58.31
2019-05-17T14:55:16.950Z,57.66
2019-05-17T15:00:21.447Z,58.62
2019-05-17T15:05:24.895Z,58.62
2019-05-17T15:10:28.328Z,58.92
2019-05-17T15:15:31.820Z,58.38
2019-05-17T15:20:35.283Z,57.63
2019-05-17T15:25:39.112Z,57.15
2019-05-17T15:30:42.550Z,56.72
2019-05-17T15:35:45.969Z,56.04
2019-05-17T15:40:49.503Z,56.92
2019-05-17T15:45:52.930Z,56.35
2019-05-17T15:50:56.368Z,57.46
2019-05-17T15:55:59.800Z,56.97
2019-05-17T16:01:03.288Z,59.38
2019-05-17T16:06:06.740Z,58.54
2019-05-17T16:11:10.152Z,58.61
2019-05-17T16:16:13.592Z,58.09
2019-05-17T16:21:17.052Z,58.29
2019-05-17T16:26:20.559Z,56.46
2019-05-17T16:31:24.626Z,56.30
2019-05-17T16:36:27.988Z,56.46
2019-05-17T16:41:31.414Z,57.69
2019-05-17T16:46:34.816Z,57.26
2019-05-17T16:51:38.238Z,57.67
2019-05-17T16:56:41.698Z,57.36
2019-05-17T17:01:45.147Z,58.50
2019-05-17T17:06:48.558Z,58.71
2019-05-17T17:11:51.969Z,59.02
2019-05-17T17:16:55.450Z,59.27
2019-05-17T17:21:58.939Z,60.32
2019-05-17T17:27:02.386Z,60.78
2019-05-17T17:32:19.424Z,60.40
2019-05-17T17:37:10.977Z,60.61
2019-05-17T17:42:14.386Z,60.46
2019-05-17T17:47:17.816Z,60.83
2019-05-17T17:52:21.228Z,61.63
2019-05-17T17:57:24.669Z,61.12
2019-05-17T18:02:28.105Z,61.48
2019-05-17T18:07:31.646Z,61.85
2019-05-17T18:12:35.060Z,62.39
2019-05-17T18:17:39.628Z,62.97
2019-05-17T18:22:43.905Z,62.68
2019-05-17T18:27:47.317Z,63.94
2019-05-17T18:32:50.809Z,64.61
2019-05-17T18:37:54.966Z,65.47
2019-05-17T18:42:58.372Z,65.86
2019-05-17T18:48:01.943Z,67.16
2019-05-17T18:53:06.577Z,68.32
2019-05-17T18:58:10.644Z,68.71
2019-05-17T19:03:14.567Z,69.58
2019-05-17T19:08:18.075Z,69.66
2019-05-17T19:13:21.537Z,70.00
2019-05-17T19:18:24.972Z,70.47
2019-05-17T19:23:28.409Z,71.22
2019-05-17T19:28:31.839Z,72.16
2019-05-17T19:33:35.250Z,72.35
2019-05-17T19:38:38.662Z,73.97
2019-05-17T19:43:42.083Z,74.62
2019-05-17T19:48:45.507Z,75.00
2019-05-17T19:53:48.942Z,75.94
2019-05-17T19:58:52.363Z,76.32
2019-05-17T20:03:55.802Z,75.73
2019-05-17T20:08:59.220Z,76.08
2019-05-17T20:14:02.645Z,76.75
2019-05-17T20:19:06.066Z,77.49
2019-05-17T20:24:09.487Z,78.61
2019-05-17T20:29:12.949Z,78.67
2019-05-17T20:34:16.367Z,78.73
2019-05-17T20:39:19.795Z,79.19
2019-05-17T20:44:23.214Z,79.62
2019-05-17T20:49:26.655Z,79.63
2019-05-17T20:54:30.066Z,79.82
2019-05-17T20:59:33.488Z,79.97
2019-05-17T21:04:36.915Z,80.01
2019-05-17T21:09:40.348Z,80.08
2019-05-17T21:14:43.756Z,81.15
2019-05-17T21:19:47.191Z,81.53
2019-05-17T21:24:50.622Z,82.54
2019-05-17T21:29:54.058Z,82.03
2019-05-17T21:34:57.481Z,82.62
2019-05-17T21:40:00.907Z,83.67
2019-05-17T21:45:10.275Z,83.22
2019-05-17T21:50:14.307Z,83.34
2019-05-17T21:55:17.756Z,85.17
2019-05-17T22:00:51.874Z,87.04
2019-05-17T22:05:55.317Z,86.71
2019-05-17T22:10:58.745Z,85.12
2019-05-17T22:16:02.185Z,85.33
2019-05-17T22:21:05.660Z,85.28
2019-05-17T22:26:09.153Z,85.62
2019-05-17T22:31:12.583Z,84.17
2019-05-17T22:36:16.038Z,84.44
2019-05-17T22:41:19.535Z,85.30
2019-05-17T22:46:35.715Z,85.25
2019-05-17T22:51:28.131Z,84.63
2019-05-17T22:56:31.568Z,86.03
2019-05-17T23:01:34.995Z,87.94
2019-05-17T23:06:38.478Z,86.76
2019-05-17T23:11:41.916Z,86.75
2019-05-17T23:16:51.533Z,87.78
2019-05-17T23:21:50.602Z,87.63
2019-05-17T23:26:54.098Z,86.65
2019-05-17T23:31:57.480Z,87.37
2019-05-17T23:37:00.901Z,88.52
2019-05-17T23:42:04.331Z,89.04
2019-05-17T23:47:07.760Z,89.24
2019-05-17T23:52:11.200Z,88.05
2019-05-17T23:57:14.624Z,87.65
